Weather observations for the past three days for
Noorvik
| Date | Time (akdt) | Wind (mph) | Vis. (mi.) | Weather | Sky Cond. | Temperature (ºF) | Relative Humidity | Wind Chill (°F) | Heat Index (°F) | Pressure | Precipitation (in) | ||||||
|---|---|---|---|---|---|---|---|---|---|---|---|---|---|---|---|---|---|
| Air | Dwpt | 6 hour | altimeter (in) | sea level (mb) | 1 hr | 3 hr | 6 hr | ||||||||||
| Max. | Min. | ||||||||||||||||
| 10 | 11:56 | NE 14 | 9.00 | Overcast | OVC055 | 39.9 | 24.1 | 53% | 33 | 29.54 | 1000.3 | ||||||
| 10 | 10:56 | E 13 | 9.00 | Overcast | OVC050 | 37.9 | 24.1 | 57% | 31 | 29.55 | 1000.6 | ||||||
| 10 | 09:56 | E 15 | 9.00 | Overcast | OVC050 | 35.1 | 23 | 35.1 | 30.9 | 61% | 26 | 29.55 | 1000.7 | ||||
| 10 | 08:56 | NE 14 | 9.00 | Overcast | OVC055 | 34 | 23 | 64% | 25 | 29.55 | 1000.7 | ||||||
| 10 | 07:56 | NE 17 | 9.00 | Overcast | OVC050 | 33.1 | 21.9 | 64% | 23 | 29.55 | 1000.7 | ||||||
| 10 | 06:56 | NE 13 | 9.00 | Overcast | OVC050 | 30.9 | 23 | 72% | 22 | 29.55 | 1000.8 | ||||||
| 10 | 05:56 | NE 15 | 9.00 | Overcast | OVC048 | 32 | 23 | 69% | 22 | 29.56 | 1001.0 | ||||||
| 10 | 04:56 | NE 18 | 9.00 | Overcast | OVC046 | 32 | 23 | 69% | 21 | 29.57 | 1001.2 | ||||||
| 10 | 03:56 | NE 14 | 10.00 | Overcast | OVC046 | 33.1 | 23 | 37.9 | 33.1 | 66% | 24 | 29.57 | 1001.2 | ||||
| 10 | 02:56 | NE 14 | 10.00 | Overcast | OVC046 | 33.1 | 23 | 66% | 24 | 29.58 | 1001.6 | ||||||
| 10 | 01:56 | NE 17 | 10.00 | Overcast | OVC044 | 34 | 24.1 | 67% | 24 | 29.57 | 1001.3 | ||||||
| 10 | 00:56 | NE 14 | 9.00 | Overcast | OVC044 | 35.1 | 23 | 61% | 27 | 29.57 | 1001.4 | ||||||
| 09 | 23:56 | NE 13 | 9.00 | Overcast | OVC046 | 36 | 23 | 59% | 28 | 29.57 | 1001.3 | ||||||
| 09 | 22:56 | NE 12 | 9.00 | Overcast | OVC048 | 37 | 23 | 57% | 30 | 29.57 | 1001.4 | ||||||
| 09 | 21:56 | NE 15 | 9.00 | Overcast | OVC050 | 37.9 | 23 | 42.1 | 37.9 | 55% | 30 | 29.56 | 1001.2 | ||||
| 09 | 20:56 | E 18 | 9.00 | Overcast | OVC050 | 41 | 21.9 | 47% | 33 | 29.56 | 1001.0 | ||||||
| 09 | 19:56 | E 17 | 9.00 | A Few Clouds | FEW050 | 41 | 21 | 45% | 33 | 29.56 | 1001.2 | ||||||
| 09 | 18:56 | E 18 | 8.00 | Overcast | OVC048 | 41 | 19.9 | 43% | 33 | 29.57 | 1001.3 | ||||||
| 09 | 16:56 | E 12 | 9.00 | Fair | CLR | 41 | 18 | 39% | 35 | 29.58 | 1001.6 | ||||||
| 09 | 15:56 | NE 8 | 9.00 | Fair | CLR | 39 | 17.1 | 39 | 33.1 | 41% | 34 | 29.59 | 1002.2 | ||||
| 09 | 14:56 | NE 14 | 9.00 | Fair | CLR | 37.9 | 16 | 41% | 30 | 29.61 | 1002.8 | ||||||
| 09 | 13:56 | E 16 G 21 | 9.00 | Fair | CLR | 36 | 16 | 44% | 27 | 29.62 | 1003.1 | ||||||
| 09 | 12:56 | E 15 G 23 | 8.00 | A Few Clouds | FEW100 | 35.1 | 16 | 46% | 26 | 29.63 | 1003.3 | ||||||
| 09 | 11:56 | N 12 | 9.00 | A Few Clouds | FEW110 | 35.1 | 15.1 | 44% | 28 | 29.64 | 1003.7 | ||||||
| 09 | 10:56 | NE 9 | 9.00 | Fair | CLR | 34 | 12.9 | 42% | 27 | 29.66 | 1004.5 | ||||||
| 09 | 09:56 | E 8 | 9.00 | Fair | CLR | 33.1 | 14 | 33.1 | 21.9 | 45% | 27 | 29.67 | 1004.8 | ||||
| 09 | 08:56 | E 3 | 8.00 | Fair | CLR | 28.9 | 17.1 | 61% | 29.68 | 1005.1 | |||||||
| 09 | 07:56 | NE 3 | 8.00 | Fair | CLR | 27 | 17.1 | 66% | 29.69 | 1005.5 | |||||||
| 09 | 06:56 | NE 7 | 9.00 | Fair | CLR | 23 | 17.1 | 78% | 16 | 29.7 | 1005.8 | ||||||
| 09 | 05:56 | NE 9 | 9.00 | Fair | CLR | 21.9 | 17.1 | 82% | 13 | 29.72 | 1006.4 | ||||||
| 09 | 04:56 | NE 9 | 9.00 | Fair | CLR | 23 | 17.1 | 78% | 14 | 29.73 | 1006.9 | ||||||
| 09 | 03:56 | NE 9 | 9.00 | Fair | CLR | 25 | 18 | 37.9 | 24.1 | 75% | 16 | 29.74 | 1007.2 | ||||
| 09 | 02:56 | NE 7 | 10.00 | Fair | CLR | 26.1 | 18 | 71% | 19 | 29.75 | 1007.6 | ||||||
| 09 | 01:56 | N 6 | 9.00 | Fair | CLR | 27 | 19 | 72% | 21 | 29.76 | 1007.8 | ||||||
| 09 | 00:56 | N 6 | 9.00 | Fair | CLR | 28.9 | 19.9 | 69% | 23 | 29.77 | 1008.0 | ||||||
| 08 | 23:56 | NE 8 | 9.00 | Fair | CLR | 30.9 | 19.9 | 64% | 24 | 29.77 | 1008.1 | ||||||
| 08 | 22:56 | N 12 | 8.00 | A Few Clouds | FEW110 | 35.1 | 19 | 52% | 28 | 29.77 | 1008.3 | ||||||
| 08 | 21:56 | NE 15 G 18 | 9.00 | Fair | CLR | 37.9 | 19.9 | 41 | 37.9 | 48% | 30 | 29.78 | 1008.5 | ||||
| 08 | 20:56 | N 15 | 9.00 | Partly Cloudy | SCT055 | 39.9 | 18 | 41% | 32 | 29.79 | 1008.9 | ||||||
| 08 | 19:56 | SW 9 | 9.00 | Partly Cloudy | SCT060 | 39.9 | 24.1 | 53% | 34 | 29.81 | 1009.5 | ||||||
| 08 | 18:56 | W 12 | 8.00 | Fair | CLR | 39 | 24.1 | 55% | 32 | 29.83 | 1010.3 | ||||||
| 08 | 17:56 | W 14 | 9.00 | Fair | CLR | 39 | 24.1 | 55% | 32 | 29.86 | 1011.2 | ||||||
| 08 | 16:56 | W 14 | 9.00 | Fair | CLR | 39 | 21.9 | 50% | 32 | 29.89 | 1012.3 | ||||||
| 08 | 15:56 | W 9 | 9.00 | Fair | CLR | 37.9 | 19 | 39 | 30 | 46% | 32 | 29.91 | 1013.1 | ||||
| 08 | 14:56 | W 9 | 8.00 | Fair | CLR | 37.9 | 19.9 | 48% | 32 | 29.94 | 1013.9 | ||||||
| 08 | 13:56 | W 7 | 8.00 | Fair | CLR | 35.1 | 19 | 52% | 30 | 29.97 | 1014.8 | ||||||
| 08 | 12:56 | W 12 | 8.00 | Fair | CLR | 33.1 | 21 | 61% | 25 | 29.99 | 1015.7 | ||||||
| 08 | 11:56 | NW 14 | 9.00 | Fair | CLR | 32 | 19.9 | 61% | 23 | 30.01 | 1016.4 | ||||||
| 08 | 10:56 | NW 10 | 8.00 | Fair | CLR | 30 | 21 | 69% | 22 | 30.04 | 1017.2 | ||||||
| 08 | 09:56 | W 7 | 9.00 | Fair | CLR | 33.1 | 19.9 | 33.1 | 19 | 58% | 28 | 30.05 | 1017.7 | ||||
| 08 | 08:56 | W 5 | 9.00 | Fair | CLR | 32 | 23 | 69% | 28 | 30.07 | 1018.2 | ||||||
| 08 | 07:56 | Calm | 8.00 | Fair | CLR | 27 | 19.9 | 75% | 30.08 | 1018.5 | |||||||
| 08 | 06:56 | N 3 | 8.00 | Fair | CLR | 24.1 | 19 | 81% | 30.09 | 1018.9 | |||||||
| 08 | 05:56 | N 5 | 8.00 | Fair | CLR | 21 | 19 | 92% | 15 | 30.1 | 1019.2 | ||||||
| 08 | 04:56 | W 3 | 8.00 | Fair | CLR | 19 | 18 | 96% | 30.1 | 1019.5 | |||||||
| 08 | 03:56 | Calm | 10.00 | Fair | CLR | 21.9 | 18 | 32 | 21.9 | 85% | 30.11 | 1019.8 | |||||
| 08 | 02:56 | N 6 | 10.00 | Fair | CLR | 25 | 18 | 75% | 19 | 30.12 | 1020.1 | ||||||
| 08 | 01:56 | NW 6 | 9.00 | Fair | CLR | 24.1 | 21 | 88% | 18 | 30.13 | 1020.2 | ||||||
| 08 | 00:56 | NW 7 | 8.00 | Fair | CLR | 26.1 | 21 | 81% | 19 | 30.13 | 1020.2 | ||||||
| 07 | 23:56 | W 8 | 9.00 | Overcast | OVC055 | 28 | 21 | 75% | 21 | 30.13 | 1020.4 | ||||||
| 07 | 22:56 | W 8 | 9.00 | Mostly Cloudy | BKN055 | 30.9 | 21 | 67% | 24 | 30.13 | 1020.5 | ||||||
| 07 | 21:56 | W 13 | 8.00 | Fair | CLR | 32 | 19 | 36 | 32 | 59% | 23 | 30.13 | 1020.4 | ||||
| 07 | 20:56 | W 12 | 9.00 | Fair | CLR | 34 | 18 | 52% | 26 | 30.13 | 1020.4 | ||||||
| 07 | 19:56 | W 10 | 8.00 | Fair | CLR | 35.1 | 18 | 50% | 28 | 30.13 | 1020.3 | ||||||
| 07 | 18:56 | SW 12 | 8.00 | Fair | CLR | 35.1 | 19 | 52% | 28 | 30.13 | 1020.5 | ||||||
| 07 | 17:56 | W 12 | 8.00 | A Few Clouds | FEW060 | 34 | 18 | 52% | 26 | 30.14 | 1020.7 | ||||||
| 07 | 16:56 | W 14 | 9.00 | Partly Cloudy | SCT060 | 33.1 | 19 | 56% | 24 | 30.15 | 1020.9 | ||||||
| 07 | 15:56 | E 8 G 16 | 9.00 | A Few Clouds | FEW055 | 35.1 | 12.9 | 36 | 28.9 | 40% | 29 | 30.14 | 1020.6 | ||||
| 07 | 14:56 | Vrbl 6 | 8.00 | Fair | CLR | 34 | 12.9 | 42% | 29 | 30.14 | 1020.7 | ||||||
| 07 | 13:56 | NE 7 | 8.00 | Fair | CLR | 33.1 | 12.9 | 43% | 28 | 30.14 | 1020.7 | ||||||
| 07 | 12:56 | NE 9 | 8.00 | Fair | CLR | 32 | 15.1 | 50% | 25 | 30.14 | 1020.7 | ||||||
| Date | Time (akdt) | Wind (mph) | Vis. (mi.) | Weather | Sky Cond. | Air | Dwpt | Max. | Min. | Relative Humidity | Wind Chill (°F) | Heat Index (°F) | altimeter (in) | sea level (mb) | 1 hr | 3 hr | 6 hr |
| 6 hour | |||||||||||||||||
| Temperature (ºF) | Pressure | Precipitation (in) | |||||||||||||||